sensor_id;sensor_type;location;lat;lon;timestamp;P1;durP1;ratioP1;P2;durP2;ratioP2
83119;SDS011;73001;51.784;4.660;2024-03-08T00:02:16;36.89;;;35.04;;
83119;SDS011;73001;51.784;4.660;2024-03-08T00:04:41;36.06;;;34.65;;
83119;SDS011;73001;51.784;4.660;2024-03-08T00:07:07;36.36;;;35.12;;
83119;SDS011;73001;51.784;4.660;2024-03-08T00:09:33;35.51;;;34.26;;
83119;SDS011;73001;51.784;4.660;2024-03-08T00:11:58;34.97;;;33.85;;
83119;SDS011;73001;51.784;4.660;2024-03-08T00:14:24;35.90;;;34.57;;
83119;SDS011;73001;51.784;4.660;2024-03-08T00:16:49;35.94;;;34.64;;
83119;SDS011;73001;51.784;4.660;2024-03-08T00:19:15;35.77;;;34.24;;
83119;SDS011;73001;51.784;4.660;2024-03-08T00:21:40;35.06;;;33.89;;
83119;SDS011;73001;51.784;4.660;2024-03-08T00:24:07;35.77;;;34.46;;
83119;SDS011;73001;51.784;4.660;2024-03-08T00:26:32;36.71;;;35.19;;
83119;SDS011;73001;51.784;4.660;2024-03-08T00:28:58;35.68;;;34.44;;
83119;SDS011;73001;51.784;4.660;2024-03-08T00:31:23;35.76;;;34.45;;
83119;SDS011;73001;51.784;4.660;2024-03-08T00:33:50;35.66;;;34.47;;
83119;SDS011;73001;51.784;4.660;2024-03-08T00:36:16;35.87;;;34.87;;
83119;SDS011;73001;51.784;4.660;2024-03-08T00:38:41;36.36;;;35.32;;
83119;SDS011;73001;51.784;4.660;2024-03-08T00:41:07;36.62;;;35.00;;
83119;SDS011;73001;51.784;4.660;2024-03-08T00:43:32;37.09;;;35.45;;
83119;SDS011;73001;51.784;4.660;2024-03-08T00:45:58;36.59;;;35.67;;
83119;SDS011;73001;51.784;4.660;2024-03-08T00:48:23;36.00;;;34.69;;
83119;SDS011;73001;51.784;4.660;2024-03-08T00:50:49;35.20;;;34.04;;
83119;SDS011;73001;51.784;4.660;2024-03-08T00:53:14;36.64;;;35.42;;
83119;SDS011;73001;51.784;4.660;2024-03-08T00:55:40;36.48;;;35.42;;
83119;SDS011;73001;51.784;4.660;2024-03-08T00:58:05;36.74;;;35.49;;
83119;SDS011;73001;51.784;4.660;2024-03-08T01:00:31;35.32;;;34.41;;
83119;SDS011;73001;51.784;4.660;2024-03-08T01:02:56;35.08;;;33.95;;
83119;SDS011;73001;51.784;4.660;2024-03-08T01:05:22;36.16;;;34.97;;
83119;SDS011;73001;51.784;4.660;2024-03-08T01:07:50;35.52;;;34.30;;
83119;SDS011;73001;51.784;4.660;2024-03-08T01:10:16;35.64;;;34.68;;
83119;SDS011;73001;51.784;4.660;2024-03-08T01:12:42;35.70;;;34.62;;
83119;SDS011;73001;51.784;4.660;2024-03-08T01:15:10;36.02;;;34.80;;
83119;SDS011;73001;51.784;4.660;2024-03-08T01:17:36;36.11;;;34.87;;
83119;SDS011;73001;51.784;4.660;2024-03-08T01:20:02;37.36;;;36.00;;
83119;SDS011;73001;51.784;4.660;2024-03-08T01:22:29;35.06;;;34.19;;
83119;SDS011;73001;51.784;4.660;2024-03-08T01:24:55;35.16;;;34.13;;
83119;SDS011;73001;51.784;4.660;2024-03-08T01:27:21;35.52;;;34.44;;
83119;SDS011;73001;51.784;4.660;2024-03-08T01:29:47;36.20;;;35.30;;
83119;SDS011;73001;51.784;4.660;2024-03-08T01:32:13;35.92;;;35.02;;
83119;SDS011;73001;51.784;4.660;2024-03-08T01:34:38;36.31;;;35.30;;
83119;SDS011;73001;51.784;4.660;2024-03-08T01:37:04;35.62;;;34.74;;
83119;SDS011;73001;51.784;4.660;2024-03-08T01:39:29;35.21;;;34.50;;
83119;SDS011;73001;51.784;4.660;2024-03-08T01:41:55;34.56;;;33.99;;
83119;SDS011;73001;51.784;4.660;2024-03-08T01:44:21;35.56;;;34.72;;
83119;SDS011;73001;51.784;4.660;2024-03-08T01:46:46;36.31;;;35.38;;
83119;SDS011;73001;51.784;4.660;2024-03-08T01:49:13;35.48;;;34.67;;
83119;SDS011;73001;51.784;4.660;2024-03-08T01:51:40;34.08;;;33.33;;
83119;SDS011;73001;51.784;4.660;2024-03-08T01:54:07;35.79;;;34.82;;
83119;SDS011;73001;51.784;4.660;2024-03-08T01:56:35;35.48;;;34.59;;
83119;SDS011;73001;51.784;4.660;2024-03-08T01:59:03;37.07;;;35.88;;
83119;SDS011;73001;51.784;4.660;2024-03-08T02:01:31;36.45;;;35.27;;
83119;SDS011;73001;51.784;4.660;2024-03-08T02:03:58;35.29;;;34.43;;
83119;SDS011;73001;51.784;4.660;2024-03-08T02:06:24;36.17;;;35.18;;
83119;SDS011;73001;51.784;4.660;2024-03-08T02:08:49;35.21;;;34.67;;
83119;SDS011;73001;51.784;4.660;2024-03-08T02:11:15;35.14;;;34.44;;
83119;SDS011;73001;51.784;4.660;2024-03-08T02:13:41;35.17;;;34.52;;
83119;SDS011;73001;51.784;4.660;2024-03-08T02:16:06;34.36;;;33.68;;
83119;SDS011;73001;51.784;4.660;2024-03-08T02:18:33;34.15;;;33.52;;
83119;SDS011;73001;51.784;4.660;2024-03-08T02:21:00;36.48;;;35.59;;
83119;SDS011;73001;51.784;4.660;2024-03-08T02:23:29;34.83;;;34.24;;
83119;SDS011;73001;51.784;4.660;2024-03-08T02:25:56;35.60;;;34.99;;
83119;SDS011;73001;51.784;4.660;2024-03-08T02:28:22;35.25;;;34.59;;
83119;SDS011;73001;51.784;4.660;2024-03-08T02:30:50;34.70;;;34.19;;
83119;SDS011;73001;51.784;4.660;2024-03-08T02:33:16;34.93;;;34.30;;
83119;SDS011;73001;51.784;4.660;2024-03-08T02:35:43;33.98;;;33.55;;
83119;SDS011;73001;51.784;4.660;2024-03-08T02:38:13;35.05;;;34.67;;
83119;SDS011;73001;51.784;4.660;2024-03-08T02:40:42;35.48;;;34.90;;
83119;SDS011;73001;51.784;4.660;2024-03-08T02:43:09;35.75;;;35.03;;
83119;SDS011;73001;51.784;4.660;2024-03-08T02:45:35;35.61;;;34.88;;
83119;SDS011;73001;51.784;4.660;2024-03-08T02:48:01;35.86;;;35.16;;
83119;SDS011;73001;51.784;4.660;2024-03-08T02:50:27;35.69;;;35.19;;
83119;SDS011;73001;51.784;4.660;2024-03-08T02:52:52;36.50;;;35.73;;
83119;SDS011;73001;51.784;4.660;2024-03-08T02:55:18;35.42;;;34.84;;
83119;SDS011;73001;51.784;4.660;2024-03-08T02:57:43;35.71;;;35.05;;
83119;SDS011;73001;51.784;4.660;2024-03-08T03:00:09;35.66;;;34.91;;
83119;SDS011;73001;51.784;4.660;2024-03-08T03:02:38;36.41;;;35.66;;
83119;SDS011;73001;51.784;4.660;2024-03-08T03:05:04;37.57;;;36.84;;
83119;SDS011;73001;51.784;4.660;2024-03-08T03:07:34;36.47;;;35.90;;
83119;SDS011;73001;51.784;4.660;2024-03-08T03:10:00;36.49;;;35.81;;
83119;SDS011;73001;51.784;4.660;2024-03-08T03:12:29;36.24;;;35.44;;
83119;SDS011;73001;51.784;4.660;2024-03-08T03:14:56;36.56;;;35.96;;
83119;SDS011;73001;51.784;4.660;2024-03-08T03:17:25;36.34;;;35.66;;
83119;SDS011;73001;51.784;4.660;2024-03-08T03:19:54;36.36;;;35.94;;
83119;SDS011;73001;51.784;4.660;2024-03-08T03:22:20;37.62;;;36.92;;
83119;SDS011;73001;51.784;4.660;2024-03-08T03:24:46;36.54;;;35.75;;
83119;SDS011;73001;51.784;4.660;2024-03-08T03:27:12;36.91;;;36.36;;
83119;SDS011;73001;51.784;4.660;2024-03-08T03:29:38;36.25;;;35.71;;
83119;SDS011;73001;51.784;4.660;2024-03-08T03:32:13;37.35;;;36.55;;
83119;SDS011;73001;51.784;4.660;2024-03-08T03:34:39;37.84;;;37.09;;
83119;SDS011;73001;51.784;4.660;2024-03-08T03:37:06;36.84;;;36.36;;
83119;SDS011;73001;51.784;4.660;2024-03-08T03:39:33;37.69;;;37.05;;
83119;SDS011;73001;51.784;4.660;2024-03-08T03:42:02;37.59;;;36.90;;
83119;SDS011;73001;51.784;4.660;2024-03-08T03:44:28;38.11;;;37.41;;
83119;SDS011;73001;51.784;4.660;2024-03-08T03:46:54;38.46;;;37.71;;
83119;SDS011;73001;51.784;4.660;2024-03-08T03:49:20;38.00;;;37.22;;
83119;SDS011;73001;51.784;4.660;2024-03-08T03:51:45;38.98;;;38.21;;
83119;SDS011;73001;51.784;4.660;2024-03-08T03:54:11;37.78;;;37.12;;
83119;SDS011;73001;51.784;4.660;2024-03-08T03:56:37;38.89;;;37.94;;
83119;SDS011;73001;51.784;4.660;2024-03-08T03:59:05;39.49;;;38.61;;
83119;SDS011;73001;51.784;4.660;2024-03-08T04:01:31;39.00;;;38.14;;
83119;SDS011;73001;51.784;4.660;2024-03-08T04:03:57;39.13;;;38.32;;
83119;SDS011;73001;51.784;4.660;2024-03-08T04:06:23;38.25;;;37.50;;
83119;SDS011;73001;51.784;4.660;2024-03-08T04:08:49;39.49;;;38.75;;
83119;SDS011;73001;51.784;4.660;2024-03-08T04:11:14;39.98;;;39.04;;
83119;SDS011;73001;51.784;4.660;2024-03-08T04:13:44;38.58;;;38.01;;
83119;SDS011;73001;51.784;4.660;2024-03-08T04:16:10;39.29;;;38.44;;
83119;SDS011;73001;51.784;4.660;2024-03-08T04:18:36;38.75;;;38.22;;
83119;SDS011;73001;51.784;4.660;2024-03-08T04:21:04;39.51;;;38.82;;
83119;SDS011;73001;51.784;4.660;2024-03-08T04:23:32;39.22;;;38.47;;
83119;SDS011;73001;51.784;4.660;2024-03-08T04:26:01;38.97;;;38.48;;
83119;SDS011;73001;51.784;4.660;2024-03-08T04:28:28;39.11;;;38.69;;
83119;SDS011;73001;51.784;4.660;2024-03-08T04:30:54;39.86;;;39.03;;
83119;SDS011;73001;51.784;4.660;2024-03-08T04:33:19;38.72;;;37.97;;
83119;SDS011;73001;51.784;4.660;2024-03-08T04:35:46;40.06;;;39.20;;
83119;SDS011;73001;51.784;4.660;2024-03-08T04:38:12;39.41;;;38.61;;
83119;SDS011;73001;51.784;4.660;2024-03-08T04:40:38;40.14;;;39.44;;
83119;SDS011;73001;51.784;4.660;2024-03-08T04:43:03;40.16;;;39.50;;
83119;SDS011;73001;51.784;4.660;2024-03-08T04:45:29;41.52;;;40.51;;
83119;SDS011;73001;51.784;4.660;2024-03-08T04:47:54;42.71;;;41.60;;
83119;SDS011;73001;51.784;4.660;2024-03-08T04:50:20;39.67;;;38.89;;
83119;SDS011;73001;51.784;4.660;2024-03-08T04:52:45;41.65;;;40.82;;
83119;SDS011;73001;51.784;4.660;2024-03-08T04:55:11;40.52;;;39.83;;
83119;SDS011;73001;51.784;4.660;2024-03-08T04:57:37;39.86;;;39.20;;
83119;SDS011;73001;51.784;4.660;2024-03-08T05:00:03;41.09;;;40.25;;
83119;SDS011;73001;51.784;4.660;2024-03-08T05:02:35;39.69;;;39.05;;
83119;SDS011;73001;51.784;4.660;2024-03-08T05:05:01;40.93;;;40.23;;
83119;SDS011;73001;51.784;4.660;2024-03-08T05:07:27;39.71;;;39.02;;
83119;SDS011;73001;51.784;4.660;2024-03-08T05:09:52;41.30;;;40.29;;
83119;SDS011;73001;51.784;4.660;2024-03-08T05:12:18;41.47;;;40.18;;
83119;SDS011;73001;51.784;4.660;2024-03-08T05:14:45;41.61;;;40.46;;
83119;SDS011;73001;51.784;4.660;2024-03-08T05:17:14;39.89;;;39.00;;
83119;SDS011;73001;51.784;4.660;2024-03-08T05:19:40;40.80;;;40.17;;
83119;SDS011;73001;51.784;4.660;2024-03-08T05:22:06;41.19;;;40.31;;
83119;SDS011;73001;51.784;4.660;2024-03-08T05:24:31;40.36;;;39.69;;
83119;SDS011;73001;51.784;4.660;2024-03-08T05:26:57;41.34;;;40.60;;
83119;SDS011;73001;51.784;4.660;2024-03-08T05:29:22;41.33;;;40.39;;
83119;SDS011;73001;51.784;4.660;2024-03-08T05:31:51;40.49;;;39.57;;
83119;SDS011;73001;51.784;4.660;2024-03-08T05:34:17;42.01;;;41.13;;
83119;SDS011;73001;51.784;4.660;2024-03-08T05:36:44;41.89;;;41.12;;
83119;SDS011;73001;51.784;4.660;2024-03-08T05:39:15;40.42;;;39.71;;
83119;SDS011;73001;51.784;4.660;2024-03-08T05:41:42;41.43;;;40.60;;
83119;SDS011;73001;51.784;4.660;2024-03-08T05:44:08;41.49;;;40.60;;
83119;SDS011;73001;51.784;4.660;2024-03-08T05:46:34;42.83;;;41.55;;
83119;SDS011;73001;51.784;4.660;2024-03-08T05:49:06;41.38;;;40.47;;
83119;SDS011;73001;51.784;4.660;2024-03-08T05:51:36;40.82;;;39.89;;
83119;SDS011;73001;51.784;4.660;2024-03-08T05:54:04;41.05;;;40.13;;
83119;SDS011;73001;51.784;4.660;2024-03-08T05:56:34;40.98;;;40.13;;
83119;SDS011;73001;51.784;4.660;2024-03-08T05:58:59;42.54;;;41.54;;
83119;SDS011;73001;51.784;4.660;2024-03-08T06:01:25;42.73;;;41.68;;
83119;SDS011;73001;51.784;4.660;2024-03-08T06:03:52;42.72;;;41.63;;
83119;SDS011;73001;51.784;4.660;2024-03-08T06:06:20;41.94;;;40.90;;
83119;SDS011;73001;51.784;4.660;2024-03-08T06:08:47;42.95;;;41.88;;
83119;SDS011;73001;51.784;4.660;2024-03-08T06:11:18;42.44;;;41.33;;
83119;SDS011;73001;51.784;4.660;2024-03-08T06:13:45;42.70;;;41.72;;
83119;SDS011;73001;51.784;4.660;2024-03-08T06:16:11;43.42;;;42.30;;
83119;SDS011;73001;51.784;4.660;2024-03-08T06:18:37;43.74;;;42.48;;
83119;SDS011;73001;51.784;4.660;2024-03-08T06:21:04;43.29;;;42.26;;
83119;SDS011;73001;51.784;4.660;2024-03-08T06:23:33;42.63;;;41.76;;
83119;SDS011;73001;51.784;4.660;2024-03-08T06:26:06;42.85;;;42.07;;
83119;SDS011;73001;51.784;4.660;2024-03-08T06:28:32;42.00;;;41.17;;
83119;SDS011;73001;51.784;4.660;2024-03-08T06:30:59;43.57;;;42.46;;
83119;SDS011;73001;51.784;4.660;2024-03-08T06:33:26;42.03;;;40.99;;
83119;SDS011;73001;51.784;4.660;2024-03-08T06:35:55;42.91;;;41.82;;
83119;SDS011;73001;51.784;4.660;2024-03-08T06:38:26;43.27;;;42.21;;
83119;SDS011;73001;51.784;4.660;2024-03-08T06:40:52;43.14;;;41.95;;
83119;SDS011;73001;51.784;4.660;2024-03-08T06:43:21;43.96;;;42.61;;
83119;SDS011;73001;51.784;4.660;2024-03-08T06:45:47;43.12;;;42.05;;
83119;SDS011;73001;51.784;4.660;2024-03-08T06:48:16;42.67;;;41.59;;
83119;SDS011;73001;51.784;4.660;2024-03-08T06:50:43;43.71;;;42.67;;
83119;SDS011;73001;51.784;4.660;2024-03-08T06:53:10;43.59;;;42.36;;
83119;SDS011;73001;51.784;4.660;2024-03-08T06:55:36;42.99;;;41.61;;
83119;SDS011;73001;51.784;4.660;2024-03-08T06:58:01;42.60;;;41.34;;
83119;SDS011;73001;51.784;4.660;2024-03-08T07:00:27;42.10;;;40.91;;
83119;SDS011;73001;51.784;4.660;2024-03-08T07:02:55;43.10;;;41.88;;
83119;SDS011;73001;51.784;4.660;2024-03-08T07:05:29;43.20;;;42.10;;
83119;SDS011;73001;51.784;4.660;2024-03-08T07:07:55;42.45;;;41.33;;
83119;SDS011;73001;51.784;4.660;2024-03-08T07:10:21;42.78;;;41.74;;
83119;SDS011;73001;51.784;4.660;2024-03-08T07:12:50;43.52;;;42.08;;
83119;SDS011;73001;51.784;4.660;2024-03-08T07:15:16;42.15;;;40.69;;
83119;SDS011;73001;51.784;4.660;2024-03-08T07:17:44;43.41;;;42.27;;
83119;SDS011;73001;51.784;4.660;2024-03-08T07:20:11;42.66;;;41.54;;
83119;SDS011;73001;51.784;4.660;2024-03-08T07:22:38;42.21;;;41.00;;
83119;SDS011;73001;51.784;4.660;2024-03-08T07:25:05;41.87;;;40.62;;
83119;SDS011;73001;51.784;4.660;2024-03-08T07:27:46;41.73;;;40.71;;
83119;SDS011;73001;51.784;4.660;2024-03-08T07:30:20;40.32;;;39.50;;
83119;SDS011;73001;51.784;4.660;2024-03-08T07:33:07;42.04;;;41.10;;
83119;SDS011;73001;51.784;4.660;2024-03-08T07:35:35;41.62;;;40.60;;
83119;SDS011;73001;51.784;4.660;2024-03-08T07:38:05;41.26;;;40.48;;
83119;SDS011;73001;51.784;4.660;2024-03-08T07:40:38;41.50;;;40.40;;
83119;SDS011;73001;51.784;4.660;2024-03-08T07:43:11;42.95;;;41.36;;
83119;SDS011;73001;51.784;4.660;2024-03-08T07:45:37;41.92;;;40.67;;
83119;SDS011;73001;51.784;4.660;2024-03-08T07:48:03;42.02;;;40.97;;
83119;SDS011;73001;51.784;4.660;2024-03-08T07:50:29;41.71;;;40.43;;
83119;SDS011;73001;51.784;4.660;2024-03-08T07:52:54;41.48;;;40.57;;
83119;SDS011;73001;51.784;4.660;2024-03-08T07:55:20;41.46;;;40.37;;
83119;SDS011;73001;51.784;4.660;2024-03-08T07:57:49;41.97;;;40.67;;
83119;SDS011;73001;51.784;4.660;2024-03-08T08:00:15;41.74;;;40.34;;
83119;SDS011;73001;51.784;4.660;2024-03-08T08:02:44;40.77;;;39.88;;
83119;SDS011;73001;51.784;4.660;2024-03-08T08:05:10;40.06;;;39.29;;
83119;SDS011;73001;51.784;4.660;2024-03-08T08:07:36;39.47;;;38.55;;
83119;SDS011;73001;51.784;4.660;2024-03-08T08:10:02;40.85;;;39.71;;
83119;SDS011;73001;51.784;4.660;2024-03-08T08:12:27;39.20;;;38.45;;
83119;SDS011;73001;51.784;4.660;2024-03-08T08:14:54;37.53;;;36.90;;
83119;SDS011;73001;51.784;4.660;2024-03-08T08:17:19;38.02;;;37.08;;
83119;SDS011;73001;51.784;4.660;2024-03-08T08:19:45;37.88;;;36.89;;
83119;SDS011;73001;51.784;4.660;2024-03-08T08:22:11;36.69;;;35.95;;
83119;SDS011;73001;51.784;4.660;2024-03-08T08:24:36;36.52;;;35.71;;
83119;SDS011;73001;51.784;4.660;2024-03-08T08:27:02;35.18;;;34.56;;
83119;SDS011;73001;51.784;4.660;2024-03-08T08:29:28;35.22;;;34.52;;
83119;SDS011;73001;51.784;4.660;2024-03-08T08:31:54;35.34;;;34.75;;
83119;SDS011;73001;51.784;4.660;2024-03-08T08:34:19;34.56;;;33.98;;
83119;SDS011;73001;51.784;4.660;2024-03-08T08:36:47;34.47;;;33.86;;
83119;SDS011;73001;51.784;4.660;2024-03-08T08:39:12;34.40;;;33.63;;
83119;SDS011;73001;51.784;4.660;2024-03-08T08:41:39;34.72;;;33.96;;
83119;SDS011;73001;51.784;4.660;2024-03-08T08:44:07;32.83;;;32.37;;
83119;SDS011;73001;51.784;4.660;2024-03-08T08:46:35;33.98;;;33.28;;
83119;SDS011;73001;51.784;4.660;2024-03-08T08:49:03;34.11;;;33.48;;
83119;SDS011;73001;51.784;4.660;2024-03-08T08:51:29;33.71;;;33.16;;
83119;SDS011;73001;51.784;4.660;2024-03-08T08:53:55;32.69;;;32.18;;
83119;SDS011;73001;51.784;4.660;2024-03-08T08:56:21;32.09;;;31.71;;
83119;SDS011;73001;51.784;4.660;2024-03-08T08:58:47;33.42;;;32.91;;
83119;SDS011;73001;51.784;4.660;2024-03-08T09:01:14;32.70;;;32.27;;
83119;SDS011;73001;51.784;4.660;2024-03-08T09:03:39;33.56;;;32.98;;
83119;SDS011;73001;51.784;4.660;2024-03-08T09:06:09;32.67;;;32.26;;
83119;SDS011;73001;51.784;4.660;2024-03-08T09:08:38;33.47;;;32.92;;
83119;SDS011;73001;51.784;4.660;2024-03-08T09:11:06;33.08;;;32.75;;
83119;SDS011;73001;51.784;4.660;2024-03-08T09:13:32;33.13;;;32.63;;
83119;SDS011;73001;51.784;4.660;2024-03-08T09:16:01;32.44;;;31.84;;
83119;SDS011;73001;51.784;4.660;2024-03-08T09:18:30;32.20;;;31.84;;
83119;SDS011;73001;51.784;4.660;2024-03-08T09:20:57;32.20;;;31.80;;
83119;SDS011;73001;51.784;4.660;2024-03-08T09:23:23;30.95;;;30.82;;
83119;SDS011;73001;51.784;4.660;2024-03-08T09:25:49;32.16;;;31.97;;
83119;SDS011;73001;51.784;4.660;2024-03-08T09:28:14;31.97;;;31.47;;
83119;SDS011;73001;51.784;4.660;2024-03-08T09:30:41;31.94;;;31.39;;
83119;SDS011;73001;51.784;4.660;2024-03-08T09:33:06;32.24;;;31.62;;
83119;SDS011;73001;51.784;4.660;2024-03-08T09:35:32;31.87;;;31.39;;
83119;SDS011;73001;51.784;4.660;2024-03-08T09:37:58;32.25;;;31.87;;
83119;SDS011;73001;51.784;4.660;2024-03-08T09:40:24;30.84;;;30.56;;
83119;SDS011;73001;51.784;4.660;2024-03-08T09:42:50;30.99;;;30.47;;
83119;SDS011;73001;51.784;4.660;2024-03-08T09:45:17;30.67;;;30.29;;
83119;SDS011;73001;51.784;4.660;2024-03-08T09:47:50;30.27;;;29.81;;
83119;SDS011;73001;51.784;4.660;2024-03-08T09:50:15;30.34;;;30.16;;
83119;SDS011;73001;51.784;4.660;2024-03-08T09:52:43;30.56;;;30.29;;
83119;SDS011;73001;51.784;4.660;2024-03-08T09:55:12;29.56;;;29.13;;
83119;SDS011;73001;51.784;4.660;2024-03-08T09:57:41;29.12;;;28.51;;
83119;SDS011;73001;51.784;4.660;2024-03-08T10:00:28;29.53;;;28.97;;
83119;SDS011;73001;51.784;4.660;2024-03-08T10:02:54;30.38;;;30.03;;
83119;SDS011;73001;51.784;4.660;2024-03-08T10:05:19;29.03;;;28.85;;
83119;SDS011;73001;51.784;4.660;2024-03-08T10:07:47;29.59;;;29.07;;
83119;SDS011;73001;51.784;4.660;2024-03-08T10:10:12;29.68;;;29.29;;
83119;SDS011;73001;51.784;4.660;2024-03-08T10:12:38;29.65;;;29.31;;
83119;SDS011;73001;51.784;4.660;2024-03-08T10:15:07;28.87;;;28.79;;
83119;SDS011;73001;51.784;4.660;2024-03-08T10:17:36;28.47;;;28.32;;
83119;SDS011;73001;51.784;4.660;2024-03-08T10:20:02;30.04;;;29.99;;
83119;SDS011;73001;51.784;4.660;2024-03-08T10:22:28;29.89;;;29.69;;
83119;SDS011;73001;51.784;4.660;2024-03-08T10:24:54;29.87;;;29.65;;
83119;SDS011;73001;51.784;4.660;2024-03-08T10:27:20;28.83;;;28.38;;
83119;SDS011;73001;51.784;4.660;2024-03-08T10:29:47;29.24;;;28.90;;
83119;SDS011;73001;51.784;4.660;2024-03-08T10:32:13;28.68;;;28.47;;
83119;SDS011;73001;51.784;4.660;2024-03-08T10:34:38;29.75;;;29.06;;
83119;SDS011;73001;51.784;4.660;2024-03-08T10:37:04;28.29;;;28.07;;
83119;SDS011;73001;51.784;4.660;2024-03-08T10:39:35;29.31;;;28.97;;
83119;SDS011;73001;51.784;4.660;2024-03-08T10:42:04;29.08;;;28.81;;
83119;SDS011;73001;51.784;4.660;2024-03-08T10:44:49;29.16;;;28.92;;
83119;SDS011;73001;51.784;4.660;2024-03-08T10:47:31;28.50;;;28.04;;
83119;SDS011;73001;51.784;4.660;2024-03-08T10:50:19;28.11;;;27.81;;
83119;SDS011;73001;51.784;4.660;2024-03-08T10:52:48;29.35;;;28.77;;
83119;SDS011;73001;51.784;4.660;2024-03-08T10:55:14;28.20;;;28.09;;
83119;SDS011;73001;51.784;4.660;2024-03-08T10:57:41;28.31;;;28.06;;
83119;SDS011;73001;51.784;4.660;2024-03-08T11:00:08;28.03;;;27.53;;
83119;SDS011;73001;51.784;4.660;2024-03-08T11:02:37;27.81;;;27.57;;
83119;SDS011;73001;51.784;4.660;2024-03-08T11:05:03;27.94;;;27.81;;
83119;SDS011;73001;51.784;4.660;2024-03-08T11:07:33;28.07;;;27.89;;
83119;SDS011;73001;51.784;4.660;2024-03-08T11:10:03;27.47;;;27.16;;
83119;SDS011;73001;51.784;4.660;2024-03-08T11:12:38;26.48;;;26.00;;
83119;SDS011;73001;51.784;4.660;2024-03-08T11:15:11;26.36;;;26.10;;
83119;SDS011;73001;51.784;4.660;2024-03-08T11:20:13;25.84;;;25.50;;
83119;SDS011;73001;51.784;4.660;2024-03-08T11:22:55;25.49;;;25.24;;
83119;SDS011;73001;51.784;4.660;2024-03-08T11:28:18;25.92;;;25.40;;
83119;SDS011;73001;51.784;4.660;2024-03-08T11:30:46;26.17;;;25.67;;
83119;SDS011;73001;51.784;4.660;2024-03-08T11:33:36;26.03;;;25.43;;
83119;SDS011;73001;51.784;4.660;2024-03-08T11:36:12;24.69;;;24.44;;
83119;SDS011;73001;51.784;4.660;2024-03-08T11:38:42;24.57;;;24.32;;
83119;SDS011;73001;51.784;4.660;2024-03-08T11:41:14;24.84;;;24.54;;
83119;SDS011;73001;51.784;4.660;2024-03-08T11:43:40;24.69;;;24.25;;
83119;SDS011;73001;51.784;4.660;2024-03-08T11:46:09;23.43;;;23.09;;
83119;SDS011;73001;51.784;4.660;2024-03-08T11:48:38;23.40;;;23.11;;
83119;SDS011;73001;51.784;4.660;2024-03-08T11:51:06;23.44;;;23.12;;
83119;SDS011;73001;51.784;4.660;2024-03-08T11:53:33;23.44;;;23.24;;
83119;SDS011;73001;51.784;4.660;2024-03-08T11:56:11;24.51;;;24.07;;
83119;SDS011;73001;51.784;4.660;2024-03-08T11:58:39;24.29;;;23.78;;
83119;SDS011;73001;51.784;4.660;2024-03-08T12:01:06;24.27;;;23.88;;
83119;SDS011;73001;51.784;4.660;2024-03-08T12:03:37;25.04;;;24.56;;
83119;SDS011;73001;51.784;4.660;2024-03-08T12:06:07;25.80;;;25.21;;
83119;SDS011;73001;51.784;4.660;2024-03-08T12:08:37;25.86;;;25.30;;
83119;SDS011;73001;51.784;4.660;2024-03-08T12:11:05;25.64;;;25.13;;
83119;SDS011;73001;51.784;4.660;2024-03-08T12:13:32;25.11;;;24.62;;
83119;SDS011;73001;51.784;4.660;2024-03-08T12:16:00;25.80;;;25.27;;
83119;SDS011;73001;51.784;4.660;2024-03-08T12:18:34;25.80;;;25.36;;
83119;SDS011;73001;51.784;4.660;2024-03-08T12:21:10;26.05;;;25.49;;
83119;SDS011;73001;51.784;4.660;2024-03-08T12:23:37;25.11;;;24.66;;
83119;SDS011;73001;51.784;4.660;2024-03-08T12:28:43;25.22;;;24.71;;
83119;SDS011;73001;51.784;4.660;2024-03-08T12:31:13;25.69;;;25.23;;
83119;SDS011;73001;51.784;4.660;2024-03-08T12:33:49;26.15;;;25.63;;
83119;SDS011;73001;51.784;4.660;2024-03-08T12:36:16;25.77;;;25.20;;
83119;SDS011;73001;51.784;4.660;2024-03-08T12:38:43;26.03;;;25.49;;
83119;SDS011;73001;51.784;4.660;2024-03-08T12:41:13;25.39;;;24.86;;
83119;SDS011;73001;51.784;4.660;2024-03-08T12:43:39;25.52;;;25.15;;
83119;SDS011;73001;51.784;4.660;2024-03-08T12:46:05;25.00;;;24.46;;
83119;SDS011;73001;51.784;4.660;2024-03-08T12:48:34;25.28;;;24.70;;
83119;SDS011;73001;51.784;4.660;2024-03-08T12:51:00;26.56;;;25.97;;
83119;SDS011;73001;51.784;4.660;2024-03-08T12:53:26;26.35;;;25.56;;
83119;SDS011;73001;51.784;4.660;2024-03-08T12:55:54;25.61;;;25.06;;
83119;SDS011;73001;51.784;4.660;2024-03-08T12:58:22;25.47;;;24.81;;
83119;SDS011;73001;51.784;4.660;2024-03-08T13:00:47;25.49;;;24.76;;
83119;SDS011;73001;51.784;4.660;2024-03-08T13:03:14;25.04;;;24.54;;
83119;SDS011;73001;51.784;4.660;2024-03-08T13:05:39;25.36;;;24.79;;
83119;SDS011;73001;51.784;4.660;2024-03-08T13:08:07;24.06;;;23.49;;
83119;SDS011;73001;51.784;4.660;2024-03-08T13:10:41;22.57;;;22.15;;
83119;SDS011;73001;51.784;4.660;2024-03-08T13:13:09;23.28;;;22.83;;
83119;SDS011;73001;51.784;4.660;2024-03-08T13:15:35;24.50;;;24.01;;
83119;SDS011;73001;51.784;4.660;2024-03-08T13:18:01;26.34;;;25.69;;
83119;SDS011;73001;51.784;4.660;2024-03-08T13:20:26;26.71;;;26.01;;
83119;SDS011;73001;51.784;4.660;2024-03-08T13:22:53;26.29;;;25.84;;
83119;SDS011;73001;51.784;4.660;2024-03-08T13:25:19;26.19;;;25.43;;
83119;SDS011;73001;51.784;4.660;2024-03-08T13:27:45;25.27;;;24.74;;
83119;SDS011;73001;51.784;4.660;2024-03-08T13:30:12;25.20;;;24.55;;
83119;SDS011;73001;51.784;4.660;2024-03-08T13:32:42;26.09;;;25.60;;
83119;SDS011;73001;51.784;4.660;2024-03-08T13:35:11;27.42;;;26.62;;
83119;SDS011;73001;51.784;4.660;2024-03-08T13:37:40;26.41;;;25.83;;
83119;SDS011;73001;51.784;4.660;2024-03-08T13:40:07;26.83;;;26.16;;
83119;SDS011;73001;51.784;4.660;2024-03-08T13:42:39;27.51;;;26.86;;
83119;SDS011;73001;51.784;4.660;2024-03-08T13:45:06;27.62;;;27.11;;
83119;SDS011;73001;51.784;4.660;2024-03-08T13:47:36;27.87;;;27.17;;
83119;SDS011;73001;51.784;4.660;2024-03-08T13:50:02;28.90;;;28.05;;
83119;SDS011;73001;51.784;4.660;2024-03-08T13:52:29;28.65;;;28.05;;
83119;SDS011;73001;51.784;4.660;2024-03-08T13:54:54;28.70;;;28.17;;
83119;SDS011;73001;51.784;4.660;2024-03-08T13:57:20;29.41;;;28.60;;
83119;SDS011;73001;51.784;4.660;2024-03-08T13:59:47;29.59;;;28.72;;
83119;SDS011;73001;51.784;4.660;2024-03-08T14:02:16;28.57;;;27.97;;
83119;SDS011;73001;51.784;4.660;2024-03-08T14:04:42;28.93;;;28.07;;
83119;SDS011;73001;51.784;4.660;2024-03-08T14:07:08;28.41;;;27.66;;
83119;SDS011;73001;51.784;4.660;2024-03-08T14:09:36;28.49;;;27.69;;
83119;SDS011;73001;51.784;4.660;2024-03-08T14:12:04;28.59;;;28.07;;
83119;SDS011;73001;51.784;4.660;2024-03-08T14:14:33;27.45;;;27.04;;
83119;SDS011;73001;51.784;4.660;2024-03-08T14:17:02;28.18;;;27.51;;
83119;SDS011;73001;51.784;4.660;2024-03-08T14:19:29;27.88;;;27.32;;
83119;SDS011;73001;51.784;4.660;2024-03-08T14:21:59;27.03;;;26.59;;
83119;SDS011;73001;51.784;4.660;2024-03-08T14:24:25;27.43;;;26.86;;
83119;SDS011;73001;51.784;4.660;2024-03-08T14:26:50;27.61;;;26.98;;
83119;SDS011;73001;51.784;4.660;2024-03-08T14:29:17;28.51;;;27.79;;
83119;SDS011;73001;51.784;4.660;2024-03-08T14:31:44;29.29;;;28.76;;